sensor_id;sensor_type;location;lat;lon;timestamp;temperature;humidity
68128;SHT30;54931;52.098;21.006;2023-11-19T00:00:09;0.41;87.79
68128;SHT30;54931;52.098;21.006;2023-11-19T00:03:01;0.42;87.79
68128;SHT30;54931;52.098;21.006;2023-11-19T00:05:29;0.44;87.84
68128;SHT30;54931;52.098;21.006;2023-11-19T00:07:57;0.44;87.86
68128;SHT30;54931;52.098;21.006;2023-11-19T00:10:25;0.46;87.88
68128;SHT30;54931;52.098;21.006;2023-11-19T00:12:53;0.44;87.77
68128;SHT30;54931;52.098;21.006;2023-11-19T00:15:21;0.44;87.77
68128;SHT30;54931;52.098;21.006;2023-11-19T00:17:48;0.44;87.79
68128;SHT30;54931;52.098;21.006;2023-11-19T00:20:19;0.44;87.73
68128;SHT30;54931;52.098;21.006;2023-11-19T00:22:50;0.42;87.67
68128;SHT30;54931;52.098;21.006;2023-11-19T00:25:18;0.44;87.74
68128;SHT30;54931;52.098;21.006;2023-11-19T00:27:48;0.45;87.84
68128;SHT30;54931;52.098;21.006;2023-11-19T00:30:17;0.47;87.78
68128;SHT30;54931;52.098;21.006;2023-11-19T00:32:45;0.48;87.79
68128;SHT30;54931;52.098;21.006;2023-11-19T00:35:13;0.48;87.80
68128;SHT30;54931;52.098;21.006;2023-11-19T00:37:43;0.49;87.77
68128;SHT30;54931;52.098;21.006;2023-11-19T00:40:12;0.49;87.70
68128;SHT30;54931;52.098;21.006;2023-11-19T00:42:40;0.47;87.71
68128;SHT30;54931;52.098;21.006;2023-11-19T00:45:07;0.47;87.77
68128;SHT30;54931;52.098;21.006;2023-11-19T00:47:37;0.47;87.73
68128;SHT30;54931;52.098;21.006;2023-11-19T00:50:05;0.47;87.77
68128;SHT30;54931;52.098;21.006;2023-11-19T00:52:38;0.47;87.74
68128;SHT30;54931;52.098;21.006;2023-11-19T00:55:06;0.47;87.66
68128;SHT30;54931;52.098;21.006;2023-11-19T00:57:35;0.46;87.60
68128;SHT30;54931;52.098;21.006;2023-11-19T01:00:03;0.46;87.67
68128;SHT30;54931;52.098;21.006;2023-11-19T01:02:45;0.47;87.71
68128;SHT30;54931;52.098;21.006;2023-11-19T01:05:13;0.49;87.79
68128;SHT30;54931;52.098;21.006;2023-11-19T01:07:41;0.50;87.71
68128;SHT30;54931;52.098;21.006;2023-11-19T01:10:08;0.51;87.70
68128;SHT30;54931;52.098;21.006;2023-11-19T01:12:37;0.51;87.73
68128;SHT30;54931;52.098;21.006;2023-11-19T01:15:06;0.50;87.70
68128;SHT30;54931;52.098;21.006;2023-11-19T01:17:35;0.51;87.70
68128;SHT30;54931;52.098;21.006;2023-11-19T01:20:05;0.50;87.70
68128;SHT30;54931;52.098;21.006;2023-11-19T01:22:34;0.50;87.70
68128;SHT30;54931;52.098;21.006;2023-11-19T01:25:02;0.50;87.76
68128;SHT30;54931;52.098;21.006;2023-11-19T01:27:32;0.49;87.79
68128;SHT30;54931;52.098;21.006;2023-11-19T01:30:03;0.49;87.76
68128;SHT30;54931;52.098;21.006;2023-11-19T01:32:32;0.49;87.78
68128;SHT30;54931;52.098;21.006;2023-11-19T01:35:00;0.48;87.72
68128;SHT30;54931;52.098;21.006;2023-11-19T01:37:28;0.47;87.71
68128;SHT30;54931;52.098;21.006;2023-11-19T01:39:56;0.45;87.72
68128;SHT30;54931;52.098;21.006;2023-11-19T01:42:24;0.44;87.70
68128;SHT30;54931;52.098;21.006;2023-11-19T01:44:58;0.43;87.70
68128;SHT30;54931;52.098;21.006;2023-11-19T01:47:28;0.43;87.78
68128;SHT30;54931;52.098;21.006;2023-11-19T01:49:58;0.43;87.80
68128;SHT30;54931;52.098;21.006;2023-11-19T01:52:26;0.43;87.88
68128;SHT30;54931;52.098;21.006;2023-11-19T01:54:54;0.43;87.87
68128;SHT30;54931;52.098;21.006;2023-11-19T01:57:23;0.44;87.91
68128;SHT30;54931;52.098;21.006;2023-11-19T01:59:51;0.45;87.93
68128;SHT30;54931;52.098;21.006;2023-11-19T02:02:20;0.46;87.90
68128;SHT30;54931;52.098;21.006;2023-11-19T02:04:49;0.43;87.93
68128;SHT30;54931;52.098;21.006;2023-11-19T02:07:19;0.41;87.95
68128;SHT30;54931;52.098;21.006;2023-11-19T02:09:47;0.40;87.90
68128;SHT30;54931;52.098;21.006;2023-11-19T02:12:15;0.40;87.98
68128;SHT30;54931;52.098;21.006;2023-11-19T02:14:42;0.38;88.05
68128;SHT30;54931;52.098;21.006;2023-11-19T02:17:31;0.38;88.06
68128;SHT30;54931;52.098;21.006;2023-11-19T02:19:58;0.38;88.12
68128;SHT30;54931;52.098;21.006;2023-11-19T02:22:26;0.37;88.21
68128;SHT30;54931;52.098;21.006;2023-11-19T02:24:58;0.38;88.10
68128;SHT30;54931;52.098;21.006;2023-11-19T02:27:46;0.40;88.13
68128;SHT30;54931;52.098;21.006;2023-11-19T02:30:24;0.40;88.10
68128;SHT30;54931;52.098;21.006;2023-11-19T02:32:56;0.42;88.09
68128;SHT30;54931;52.098;21.006;2023-11-19T02:35:25;0.43;88.11
68128;SHT30;54931;52.098;21.006;2023-11-19T02:37:58;0.43;88.09
68128;SHT30;54931;52.098;21.006;2023-11-19T02:40:27;0.44;88.06
68128;SHT30;54931;52.098;21.006;2023-11-19T02:42:56;0.44;87.99
68128;SHT30;54931;52.098;21.006;2023-11-19T02:45:25;0.41;87.91
68128;SHT30;54931;52.098;21.006;2023-11-19T02:47:53;0.41;87.99
68128;SHT30;54931;52.098;21.006;2023-11-19T02:50:21;0.42;88.09
68128;SHT30;54931;52.098;21.006;2023-11-19T02:52:53;0.43;88.02
68128;SHT30;54931;52.098;21.006;2023-11-19T02:55:25;0.43;88.01
68128;SHT30;54931;52.098;21.006;2023-11-19T02:57:55;0.43;88.02
68128;SHT30;54931;52.098;21.006;2023-11-19T03:00:23;0.44;88.02
68128;SHT30;54931;52.098;21.006;2023-11-19T03:02:51;0.44;88.00
68128;SHT30;54931;52.098;21.006;2023-11-19T03:05:37;0.43;88.06
68128;SHT30;54931;52.098;21.006;2023-11-19T03:08:04;0.40;88.10
68128;SHT30;54931;52.098;21.006;2023-11-19T03:10:32;0.37;88.13
68128;SHT30;54931;52.098;21.006;2023-11-19T03:13:01;0.37;88.19
68128;SHT30;54931;52.098;21.006;2023-11-19T03:15:30;0.36;88.12
68128;SHT30;54931;52.098;21.006;2023-11-19T03:17:58;0.36;88.20
68128;SHT30;54931;52.098;21.006;2023-11-19T03:20:25;0.36;88.22
68128;SHT30;54931;52.098;21.006;2023-11-19T03:22:54;0.36;88.21
68128;SHT30;54931;52.098;21.006;2023-11-19T03:25:22;0.36;88.24
68128;SHT30;54931;52.098;21.006;2023-11-19T03:27:49;0.36;88.30
68128;SHT30;54931;52.098;21.006;2023-11-19T03:30:16;0.35;88.30
68128;SHT30;54931;52.098;21.006;2023-11-19T03:32:44;0.35;88.32
68128;SHT30;54931;52.098;21.006;2023-11-19T03:35:12;0.36;88.31
68128;SHT30;54931;52.098;21.006;2023-11-19T03:37:39;0.38;88.31
68128;SHT30;54931;52.098;21.006;2023-11-19T03:40:07;0.41;88.30
68128;SHT30;54931;52.098;21.006;2023-11-19T03:42:35;0.43;88.32
68128;SHT30;54931;52.098;21.006;2023-11-19T03:45:03;0.44;88.29
68128;SHT30;54931;52.098;21.006;2023-11-19T03:47:31;0.44;88.21
68128;SHT30;54931;52.098;21.006;2023-11-19T03:49:59;0.44;88.24
68128;SHT30;54931;52.098;21.006;2023-11-19T03:52:26;0.42;88.13
68128;SHT30;54931;52.098;21.006;2023-11-19T03:54:56;0.42;88.18
68128;SHT30;54931;52.098;21.006;2023-11-19T03:57:24;0.42;88.22
68128;SHT30;54931;52.098;21.006;2023-11-19T03:59:52;0.42;88.20
68128;SHT30;54931;52.098;21.006;2023-11-19T04:02:19;0.41;88.20
68128;SHT30;54931;52.098;21.006;2023-11-19T04:04:47;0.42;88.23
68128;SHT30;54931;52.098;21.006;2023-11-19T04:07:15;0.39;88.22
68128;SHT30;54931;52.098;21.006;2023-11-19T04:09:42;0.38;88.19
68128;SHT30;54931;52.098;21.006;2023-11-19T04:12:10;0.38;88.27
68128;SHT30;54931;52.098;21.006;2023-11-19T04:14:37;0.38;88.30
68128;SHT30;54931;52.098;21.006;2023-11-19T04:17:05;0.40;88.33
68128;SHT30;54931;52.098;21.006;2023-11-19T04:19:32;0.38;88.36
68128;SHT30;54931;52.098;21.006;2023-11-19T04:22:00;0.39;88.38
68128;SHT30;54931;52.098;21.006;2023-11-19T04:24:27;0.38;88.31
68128;SHT30;54931;52.098;21.006;2023-11-19T04:26:55;0.39;88.33
68128;SHT30;54931;52.098;21.006;2023-11-19T04:29:22;0.36;88.32
68128;SHT30;54931;52.098;21.006;2023-11-19T04:31:49;0.34;88.31
68128;SHT30;54931;52.098;21.006;2023-11-19T04:34:17;0.32;88.34
68128;SHT30;54931;52.098;21.006;2023-11-19T04:36:44;0.32;88.47
68128;SHT30;54931;52.098;21.006;2023-11-19T04:39:13;0.33;88.55
68128;SHT30;54931;52.098;21.006;2023-11-19T04:41:46;0.33;88.52
68128;SHT30;54931;52.098;21.006;2023-11-19T04:44:20;0.35;88.56
68128;SHT30;54931;52.098;21.006;2023-11-19T04:46:48;0.34;88.52
68128;SHT30;54931;52.098;21.006;2023-11-19T04:49:16;0.34;88.50
68128;SHT30;54931;52.098;21.006;2023-11-19T04:51:45;0.35;88.57
68128;SHT30;54931;52.098;21.006;2023-11-19T04:54:18;0.36;88.56
68128;SHT30;54931;52.098;21.006;2023-11-19T04:56:45;0.35;88.59
68128;SHT30;54931;52.098;21.006;2023-11-19T04:59:14;0.34;88.56
68128;SHT30;54931;52.098;21.006;2023-11-19T05:01:46;0.35;88.62
68128;SHT30;54931;52.098;21.006;2023-11-19T05:04:15;0.34;88.74
68128;SHT30;54931;52.098;21.006;2023-11-19T05:06:42;0.32;88.81
68128;SHT30;54931;52.098;21.006;2023-11-19T05:09:09;0.29;88.93
68128;SHT30;54931;52.098;21.006;2023-11-19T05:11:40;0.28;88.84
68128;SHT30;54931;52.098;21.006;2023-11-19T05:14:07;0.27;88.89
68128;SHT30;54931;52.098;21.006;2023-11-19T05:16:37;0.27;88.90
68128;SHT30;54931;52.098;21.006;2023-11-19T05:19:07;0.28;88.93
68128;SHT30;54931;52.098;21.006;2023-11-19T05:21:36;0.29;88.89
68128;SHT30;54931;52.098;21.006;2023-11-19T05:24:03;0.31;88.87
68128;SHT30;54931;52.098;21.006;2023-11-19T05:26:31;0.33;88.84
68128;SHT30;54931;52.098;21.006;2023-11-19T05:28:59;0.34;88.81
68128;SHT30;54931;52.098;21.006;2023-11-19T05:31:26;0.35;88.81
68128;SHT30;54931;52.098;21.006;2023-11-19T05:33:54;0.36;88.75
68128;SHT30;54931;52.098;21.006;2023-11-19T05:36:21;0.35;88.66
68128;SHT30;54931;52.098;21.006;2023-11-19T05:38:49;0.34;88.60
68128;SHT30;54931;52.098;21.006;2023-11-19T05:41:16;0.35;88.59
68128;SHT30;54931;52.098;21.006;2023-11-19T05:43:43;0.34;88.54
68128;SHT30;54931;52.098;21.006;2023-11-19T05:46:11;0.35;88.64
68128;SHT30;54931;52.098;21.006;2023-11-19T05:48:40;0.37;88.61
68128;SHT30;54931;52.098;21.006;2023-11-19T05:51:07;0.38;88.60
68128;SHT30;54931;52.098;21.006;2023-11-19T05:53:35;0.37;88.29
68128;SHT30;54931;52.098;21.006;2023-11-19T05:56:02;0.37;88.19
68128;SHT30;54931;52.098;21.006;2023-11-19T05:58:31;0.37;87.99
68128;SHT30;54931;52.098;21.006;2023-11-19T06:00:59;0.35;87.59
68128;SHT30;54931;52.098;21.006;2023-11-19T06:03:30;0.34;87.16
68128;SHT30;54931;52.098;21.006;2023-11-19T06:05:58;0.35;87.29
68128;SHT30;54931;52.098;21.006;2023-11-19T06:08:26;0.34;87.33
68128;SHT30;54931;52.098;21.006;2023-11-19T06:10:54;0.34;87.34
68128;SHT30;54931;52.098;21.006;2023-11-19T06:13:21;0.35;87.38
68128;SHT30;54931;52.098;21.006;2023-11-19T06:15:49;0.36;87.27
68128;SHT30;54931;52.098;21.006;2023-11-19T06:18:17;0.35;87.12
68128;SHT30;54931;52.098;21.006;2023-11-19T06:20:47;0.38;87.29
68128;SHT30;54931;52.098;21.006;2023-11-19T06:23:15;0.40;87.39
68128;SHT30;54931;52.098;21.006;2023-11-19T06:25:42;0.39;87.17
68128;SHT30;54931;52.098;21.006;2023-11-19T06:28:10;0.38;87.30
68128;SHT30;54931;52.098;21.006;2023-11-19T06:30:38;0.35;86.99
68128;SHT30;54931;52.098;21.006;2023-11-19T06:33:06;0.30;86.97
68128;SHT30;54931;52.098;21.006;2023-11-19T06:35:34;0.27;86.76
68128;SHT30;54931;52.098;21.006;2023-11-19T06:38:04;0.23;86.63
68128;SHT30;54931;52.098;21.006;2023-11-19T06:40:32;0.19;86.53
68128;SHT30;54931;52.098;21.006;2023-11-19T06:43:02;0.16;86.53
68128;SHT30;54931;52.098;21.006;2023-11-19T06:45:31;0.15;86.58
68128;SHT30;54931;52.098;21.006;2023-11-19T06:48:02;0.20;86.79
68128;SHT30;54931;52.098;21.006;2023-11-19T06:50:32;0.23;86.75
68128;SHT30;54931;52.098;21.006;2023-11-19T06:52:59;0.24;86.65
68128;SHT30;54931;52.098;21.006;2023-11-19T06:55:27;0.25;86.62
68128;SHT30;54931;52.098;21.006;2023-11-19T06:57:55;0.27;86.50
68128;SHT30;54931;52.098;21.006;2023-11-19T07:00:22;0.27;86.42
68128;SHT30;54931;52.098;21.006;2023-11-19T07:02:50;0.28;86.33
68128;SHT30;54931;52.098;21.006;2023-11-19T07:05:18;0.29;86.31
68128;SHT30;54931;52.098;21.006;2023-11-19T07:07:45;0.32;86.31
68128;SHT30;54931;52.098;21.006;2023-11-19T07:10:14;0.37;86.14
68128;SHT30;54931;52.098;21.006;2023-11-19T07:12:42;0.39;86.04
68128;SHT30;54931;52.098;21.006;2023-11-19T07:15:11;0.45;86.24
68128;SHT30;54931;52.098;21.006;2023-11-19T07:17:39;0.49;86.16
68128;SHT30;54931;52.098;21.006;2023-11-19T07:20:07;0.52;86.15
68128;SHT30;54931;52.098;21.006;2023-11-19T07:22:36;0.56;86.05
68128;SHT30;54931;52.098;21.006;2023-11-19T07:25:05;0.58;86.09
68128;SHT30;54931;52.098;21.006;2023-11-19T07:27:33;0.60;85.92
68128;SHT30;54931;52.098;21.006;2023-11-19T07:30:01;0.63;85.89
68128;SHT30;54931;52.098;21.006;2023-11-19T07:32:29;0.64;85.98
68128;SHT30;54931;52.098;21.006;2023-11-19T07:34:57;0.68;85.98
68128;SHT30;54931;52.098;21.006;2023-11-19T07:37:24;0.68;85.78
68128;SHT30;54931;52.098;21.006;2023-11-19T07:39:53;0.69;85.80
68128;SHT30;54931;52.098;21.006;2023-11-19T07:42:20;0.71;85.65
68128;SHT30;54931;52.098;21.006;2023-11-19T07:44:48;0.74;85.76
68128;SHT30;54931;52.098;21.006;2023-11-19T07:47:16;0.78;85.63
68128;SHT30;54931;52.098;21.006;2023-11-19T07:49:43;0.77;85.29
68128;SHT30;54931;52.098;21.006;2023-11-19T07:52:11;0.80;85.51
68128;SHT30;54931;52.098;21.006;2023-11-19T07:54:39;0.82;85.27
68128;SHT30;54931;52.098;21.006;2023-11-19T07:57:06;0.88;85.53
68128;SHT30;54931;52.098;21.006;2023-11-19T07:59:34;0.94;85.37
68128;SHT30;54931;52.098;21.006;2023-11-19T08:02:02;0.99;85.26
68128;SHT30;54931;52.098;21.006;2023-11-19T08:04:31;1.01;85.03
68128;SHT30;54931;52.098;21.006;2023-11-19T08:07:00;1.05;85.00
68128;SHT30;54931;52.098;21.006;2023-11-19T08:09:28;1.10;85.09
68128;SHT30;54931;52.098;21.006;2023-11-19T08:11:56;1.20;85.40
68128;SHT30;54931;52.098;21.006;2023-11-19T08:14:23;1.28;85.00
68128;SHT30;54931;52.098;21.006;2023-11-19T08:16:51;1.26;84.30
68128;SHT30;54931;52.098;21.006;2023-11-19T08:19:20;1.28;84.40
68128;SHT30;54931;52.098;21.006;2023-11-19T08:21:47;1.34;84.71
68128;SHT30;54931;52.098;21.006;2023-11-19T08:24:15;1.33;84.03
68128;SHT30;54931;52.098;21.006;2023-11-19T08:26:42;1.36;84.22
68128;SHT30;54931;52.098;21.006;2023-11-19T08:29:10;1.37;84.12
68128;SHT30;54931;52.098;21.006;2023-11-19T08:31:38;1.40;83.97
68128;SHT30;54931;52.098;21.006;2023-11-19T08:34:06;1.45;83.78
68128;SHT30;54931;52.098;21.006;2023-11-19T08:36:35;1.48;83.45
68128;SHT30;54931;52.098;21.006;2023-11-19T08:39:04;1.50;83.37
68128;SHT30;54931;52.098;21.006;2023-11-19T08:41:31;1.59;83.69
68128;SHT30;54931;52.098;21.006;2023-11-19T08:43:59;1.66;83.24
68128;SHT30;54931;52.098;21.006;2023-11-19T08:46:26;1.72;82.95
68128;SHT30;54931;52.098;21.006;2023-11-19T08:48:54;1.72;82.73
68128;SHT30;54931;52.098;21.006;2023-11-19T08:51:24;1.67;82.69
68128;SHT30;54931;52.098;21.006;2023-11-19T08:53:52;1.58;82.36
68128;SHT30;54931;52.098;21.006;2023-11-19T08:56:20;1.52;82.88
68128;SHT30;54931;52.098;21.006;2023-11-19T08:58:48;1.50;83.36
68128;SHT30;54931;52.098;21.006;2023-11-19T09:01:15;1.50;83.53
68128;SHT30;54931;52.098;21.006;2023-11-19T09:03:43;1.48;83.67
68128;SHT30;54931;52.098;21.006;2023-11-19T09:06:11;1.41;83.56
68128;SHT30;54931;52.098;21.006;2023-11-19T09:08:39;1.38;84.00
68128;SHT30;54931;52.098;21.006;2023-11-19T09:11:07;1.38;84.12
68128;SHT30;54931;52.098;21.006;2023-11-19T09:13:36;1.42;84.09
68128;SHT30;54931;52.098;21.006;2023-11-19T09:16:04;1.47;84.12
68128;SHT30;54931;52.098;21.006;2023-11-19T09:18:32;1.47;83.60
68128;SHT30;54931;52.098;21.006;2023-11-19T09:21:00;1.42;83.98
68128;SHT30;54931;52.098;21.006;2023-11-19T09:23:29;1.36;84.24
68128;SHT30;54931;52.098;21.006;2023-11-19T09:26:00;1.31;84.12
68128;SHT30;54931;52.098;21.006;2023-11-19T09:28:28;1.32;84.47
68128;SHT30;54931;52.098;21.006;2023-11-19T09:30:55;1.32;84.53
68128;SHT30;54931;52.098;21.006;2023-11-19T09:33:23;1.33;84.44
68128;SHT30;54931;52.098;21.006;2023-11-19T09:35:51;1.38;84.50
68128;SHT30;54931;52.098;21.006;2023-11-19T09:38:20;1.42;84.29
68128;SHT30;54931;52.098;21.006;2023-11-19T09:40:49;1.47;84.45
68128;SHT30;54931;52.098;21.006;2023-11-19T09:43:17;1.49;84.32
68128;SHT30;54931;52.098;21.006;2023-11-19T09:45:50;1.47;84.20
68128;SHT30;54931;52.098;21.006;2023-11-19T09:48:18;1.48;84.33
68128;SHT30;54931;52.098;21.006;2023-11-19T09:50:47;1.49;84.26
68128;SHT30;54931;52.098;21.006;2023-11-19T09:53:16;1.50;84.28
68128;SHT30;54931;52.098;21.006;2023-11-19T09:55:45;1.48;84.31
68128;SHT30;54931;52.098;21.006;2023-11-19T09:58:14;1.49;84.46
68128;SHT30;54931;52.098;21.006;2023-11-19T10:00:44;1.51;84.49
68128;SHT30;54931;52.098;21.006;2023-11-19T10:03:14;1.51;84.34
68128;SHT30;54931;52.098;21.006;2023-11-19T10:05:42;1.52;84.39
68128;SHT30;54931;52.098;21.006;2023-11-19T10:08:10;1.54;84.35
68128;SHT30;54931;52.098;21.006;2023-11-19T10:10:40;1.52;84.18
68128;SHT30;54931;52.098;21.006;2023-11-19T10:13:09;1.54;84.44
68128;SHT30;54931;52.098;21.006;2023-11-19T10:15:39;1.54;84.24
68128;SHT30;54931;52.098;21.006;2023-11-19T10:18:09;1.54;84.33
68128;SHT30;54931;52.098;21.006;2023-11-19T10:20:41;1.55;84.36
68128;SHT30;54931;52.098;21.006;2023-11-19T10:23:10;1.51;84.15
68128;SHT30;54931;52.098;21.006;2023-11-19T10:25:39;1.49;84.46
68128;SHT30;54931;52.098;21.006;2023-11-19T10:28:08;1.46;84.53
68128;SHT30;54931;52.098;21.006;2023-11-19T10:30:36;1.45;84.71
68128;SHT30;54931;52.098;21.006;2023-11-19T10:35:51;1.38;84.88
68128;SHT30;54931;52.098;21.006;2023-11-19T10:38:21;1.37;84.90
68128;SHT30;54931;52.098;21.006;2023-11-19T10:40:50;1.34;85.02
68128;SHT30;54931;52.098;21.006;2023-11-19T10:43:19;1.32;85.00
68128;SHT30;54931;52.098;21.006;2023-11-19T10:45:49;1.31;85.17
68128;SHT30;54931;52.098;21.006;2023-11-19T10:48:18;1.29;85.32
68128;SHT30;54931;52.098;21.006;2023-11-19T10:50:49;1.29;85.45
68128;SHT30;54931;52.098;21.006;2023-11-19T10:53:24;1.28;85.38
68128;SHT30;54931;52.098;21.006;2023-11-19T10:55:53;1.30;85.57
68128;SHT30;54931;52.098;21.006;2023-11-19T10:58:25;1.33;85.48
68128;SHT30;54931;52.098;21.006;2023-11-19T11:00:57;1.33;85.55
68128;SHT30;54931;52.098;21.006;2023-11-19T11:03:35;1.38;85.60
68128;SHT30;54931;52.098;21.006;2023-11-19T11:06:07;1.41;85.68
68128;SHT30;54931;52.098;21.006;2023-11-19T11:08:37;1.41;85.52
68128;SHT30;54931;52.098;21.006;2023-11-19T11:11:07;1.40;85.45
68128;SHT30;54931;52.098;21.006;2023-11-19T11:13:37;1.37;85.24
68128;SHT30;54931;52.098;21.006;2023-11-19T11:16:10;1.34;85.09
68128;SHT30;54931;52.098;21.006;2023-11-19T11:18:38;1.36;85.41
68128;SHT30;54931;52.098;21.006;2023-11-19T11:21:09;1.33;85.53
68128;SHT30;54931;52.098;21.006;2023-11-19T11:26:48;1.32;85.79
68128;SHT30;54931;52.098;21.006;2023-11-19T11:32:54;1.33;85.72
68128;SHT30;54931;52.098;21.006;2023-11-19T11:36:07;1.37;85.75
68128;SHT30;54931;52.098;21.006;2023-11-19T11:38:47;1.40;85.77
68128;SHT30;54931;52.098;21.006;2023-11-19T11:43:50;1.49;85.56
68128;SHT30;54931;52.098;21.006;2023-11-19T11:49:01;1.49;85.49
68128;SHT30;54931;52.098;21.006;2023-11-19T11:54:11;1.50;85.36
68128;SHT30;54931;52.098;21.006;2023-11-19T11:57:28;1.52;85.41
68128;SHT30;54931;52.098;21.006;2023-11-19T11:59:50;1.54;85.45
68128;SHT30;54931;52.098;21.006;2023-11-19T12:02:21;1.54;85.35
68128;SHT30;54931;52.098;21.006;2023-11-19T12:04:50;1.54;85.25
68128;SHT30;54931;52.098;21.006;2023-11-19T12:10:12;1.53;85.33
68128;SHT30;54931;52.098;21.006;2023-11-19T12:12:40;1.53;85.32
68128;SHT30;54931;52.098;21.006;2023-11-19T12:15:08;1.52;85.41
68128;SHT30;54931;52.098;21.006;2023-11-19T12:20:13;1.52;85.47
68128;SHT30;54931;52.098;21.006;2023-11-19T12:22:41;1.50;85.41
68128;SHT30;54931;52.098;21.006;2023-11-19T12:25:10;1.50;85.51
68128;SHT30;54931;52.098;21.006;2023-11-19T12:27:41;1.48;85.58
68128;SHT30;54931;52.098;21.006;2023-11-19T12:30:32;1.44;85.59
68128;SHT30;54931;52.098;21.006;2023-11-19T12:33:00;1.43;85.71
68128;SHT30;54931;52.098;21.006;2023-11-19T12:35:45;1.45;85.78
68128;SHT30;54931;52.098;21.006;2023-11-19T12:38:20;1.42;85.83
68128;SHT30;54931;52.098;21.006;2023-11-19T12:41:08;1.40;85.87
68128;SHT30;54931;52.098;21.006;2023-11-19T12:43:44;1.36;85.95
68128;SHT30;54931;52.098;21.006;2023-11-19T12:46:19;1.33;86.01
68128;SHT30;54931;52.098;21.006;2023-11-19T12:48:51;1.32;86.10
68128;SHT30;54931;52.098;21.006;2023-11-19T12:51:19;1.32;86.21
68128;SHT30;54931;52.098;21.006;2023-11-19T12:53:56;1.33;86.19
68128;SHT30;54931;52.098;21.006;2023-11-19T12:56:25;1.30;86.22
68128;SHT30;54931;52.098;21.006;2023-11-19T12:58:53;1.29;86.37
68128;SHT30;54931;52.098;21.006;2023-11-19T13:01:20;1.29;86.39
68128;SHT30;54931;52.098;21.006;2023-11-19T13:03:48;1.30;86.44
68128;SHT30;54931;52.098;21.006;2023-11-19T13:06:18;1.30;86.53
68128;SHT30;54931;52.098;21.006;2023-11-19T13:08:49;1.27;86.55
68128;SHT30;54931;52.098;21.006;2023-11-19T13:11:33;1.28;86.63
68128;SHT30;54931;52.098;21.006;2023-11-19T13:14:03;1.29;86.61
68128;SHT30;54931;52.098;21.006;2023-11-19T13:16:32;1.31;86.70
68128;SHT30;54931;52.098;21.006;2023-11-19T13:19:00;1.32;86.69
68128;SHT30;54931;52.098;21.006;2023-11-19T13:21:28;1.32;86.69
68128;SHT30;54931;52.098;21.006;2023-11-19T13:23:59;1.31;86.67
68128;SHT30;54931;52.098;21.006;2023-11-19T13:26:27;1.29;86.71
68128;SHT30;54931;52.098;21.006;2023-11-19T13:28:55;1.29;86.85
68128;SHT30;54931;52.098;21.006;2023-11-19T13:31:23;1.27;86.97
68128;SHT30;54931;52.098;21.006;2023-11-19T13:33:51;1.26;86.98
68128;SHT30;54931;52.098;21.006;2023-11-19T13:36:19;1.25;87.07
68128;SHT30;54931;52.098;21.006;2023-11-19T13:38:47;1.25;87.17
68128;SHT30;54931;52.098;21.006;2023-11-19T13:41:15;1.25;87.23
68128;SHT30;54931;52.098;21.006;2023-11-19T13:43:42;1.23;87.25
68128;SHT30;54931;52.098;21.006;2023-11-19T13:46:11;1.24;87.31
68128;SHT30;54931;52.098;21.006;2023-11-19T13:48:39;1.23;87.38
68128;SHT30;54931;52.098;21.006;2023-11-19T13:51:07;1.20;87.44
68128;SHT30;54931;52.098;21.006;2023-11-19T13:53:37;1.20;87.51
68128;SHT30;54931;52.098;21.006;2023-11-19T13:56:05;1.19;87.62
68128;SHT30;54931;52.098;21.006;2023-11-19T13:58:34;1.18;87.72
68128;SHT30;54931;52.098;21.006;2023-11-19T14:01:02;1.19;87.74
68128;SHT30;54931;52.098;21.006;2023-11-19T14:03:30;1.19;87.76
68128;SHT30;54931;52.098;21.006;2023-11-19T14:05:58;1.18;87.84
68128;SHT30;54931;52.098;21.006;2023-11-19T14:08:26;1.18;87.83
68128;SHT30;54931;52.098;21.006;2023-11-19T14:10:55;1.17;87.90
68128;SHT30;54931;52.098;21.006;2023-11-19T14:13:23;1.17;87.85
68128;SHT30;54931;52.098;21.006;2023-11-19T14:15:51;1.18;87.80
68128;SHT30;54931;52.098;21.006;2023-11-19T14:18:19;1.18;87.90
68128;SHT30;54931;52.098;21.006;2023-11-19T14:20:47;1.17;87.87
68128;SHT30;54931;52.098;21.006;2023-11-19T14:23:15;1.17;87.89
68128;SHT30;54931;52.098;21.006;2023-11-19T14:25:43;1.16;87.92
68128;SHT30;54931;52.098;21.006;2023-11-19T14:28:11;1.16;87.95
68128;SHT30;54931;52.098;21.006;2023-11-19T14:30:39;1.17;87.89
68128;SHT30;54931;52.098;21.006;2023-11-19T14:33:08;1.15;87.99
68128;SHT30;54931;52.098;21.006;2023-11-19T14:35:36;1.14;88.07
68128;SHT30;54931;52.098;21.006;2023-11-19T14:38:04;1.11;88.09
68128;SHT30;54931;52.098;21.006;2023-11-19T14:40:34;1.11;88.19
68128;SHT30;54931;52.098;21.006;2023-11-19T14:43:02;1.07;88.33
68128;SHT30;54931;52.098;21.006;2023-11-19T14:45:30;1.04;88.40
68128;SHT30;54931;52.098;21.006;2023-11-19T14:47:58;1.01;88.60
68128;SHT30;54931;52.098;21.006;2023-11-19T14:50:26;0.98;88.81
68128;SHT30;54931;52.098;21.006;2023-11-19T14:52:54;0.96;88.84
68128;SHT30;54931;52.098;21.006;2023-11-19T14:55:22;0.94;88.92
68128;SHT30;54931;52.098;21.006;2023-11-19T14:57:50;0.92;89.18
68128;SHT30;54931;52.098;21.006;2023-11-19T15:00:18;0.94;89.18
68128;SHT30;54931;52.098;21.006;2023-11-19T15:02:46;0.93;89.22
68128;SHT30;54931;52.098;21.006;2023-11-19T15:05:14;0.92;89.31
68128;SHT30;54931;52.098;21.006;2023-11-19T15:07:42;0.92;89.35
68128;SHT30;54931;52.098;21.006;2023-11-19T15:10:10;0.94;89.17
68128;SHT30;54931;52.098;21.006;2023-11-19T15:12:39;0.92;89.21
68128;SHT30;54931;52.098;21.006;2023-11-19T15:15:09;0.91;89.34
68128;SHT30;54931;52.098;21.006;2023-11-19T15:17:37;0.90;89.41
68128;SHT30;54931;52.098;21.006;2023-11-19T15:20:05;0.87;89.58
68128;SHT30;54931;52.098;21.006;2023-11-19T15:22:34;0.88;89.55
68128;SHT30;54931;52.098;21.006;2023-11-19T15:25:02;0.87;89.63
68128;SHT30;54931;52.098;21.006;2023-11-19T15:27:30;0.87;89.62
68128;SHT30;54931;52.098;21.006;2023-11-19T15:29:58;0.87;89.66
68128;SHT30;54931;52.098;21.006;2023-11-19T15:32:26;0.87;89.63
68128;SHT30;54931;52.098;21.006;2023-11-19T15:34:54;0.89;89.62
68128;SHT30;54931;52.098;21.006;2023-11-19T15:37:21;0.90;89.50
68128;SHT30;54931;52.098;21.006;2023-11-19T15:39:49;0.90;89.42
68128;SHT30;54931;52.098;21.006;2023-11-19T15:42:18;0.91;89.44
68128;SHT30;54931;52.098;21.006;2023-11-19T15:44:46;0.92;89.42
68128;SHT30;54931;52.098;21.006;2023-11-19T15:47:15;0.92;89.32
68128;SHT30;54931;52.098;21.006;2023-11-19T15:49:43;0.92;89.34
68128;SHT30;54931;52.098;21.006;2023-11-19T15:52:12;0.93;89.34
68128;SHT30;54931;52.098;21.006;2023-11-19T15:54:41;0.92;89.37
68128;SHT30;54931;52.098;21.006;2023-11-19T15:57:09;0.92;89.36
68128;SHT30;54931;52.098;21.006;2023-11-19T15:59:37;0.93;89.32
68128;SHT30;54931;52.098;21.006;2023-11-19T16:02:05;0.94;89.30
68128;SHT30;54931;52.098;21.006;2023-11-19T16:04:33;0.93;89.39